sensor_id;sensor_type;location;lat;lon;timestamp;P1;durP1;ratioP1;P2;durP2;ratioP2
58260;SDS011;44058;52.898;6.502;2023-06-22T00:02:16;18.52;;;15.07;;
58260;SDS011;44058;52.898;6.502;2023-06-22T00:04:42;19.02;;;15.40;;
58260;SDS011;44058;52.898;6.502;2023-06-22T00:07:08;14.73;;;12.90;;
58260;SDS011;44058;52.898;6.502;2023-06-22T00:09:34;15.90;;;13.57;;
58260;SDS011;44058;52.898;6.502;2023-06-22T00:12:01;14.52;;;12.85;;
58260;SDS011;44058;52.898;6.502;2023-06-22T00:14:27;18.13;;;15.05;;
58260;SDS011;44058;52.898;6.502;2023-06-22T00:16:54;21.52;;;18.25;;
58260;SDS011;44058;52.898;6.502;2023-06-22T00:19:22;22.60;;;18.52;;
58260;SDS011;44058;52.898;6.502;2023-06-22T00:21:48;25.27;;;18.98;;
58260;SDS011;44058;52.898;6.502;2023-06-22T00:24:21;19.23;;;17.17;;
58260;SDS011;44058;52.898;6.502;2023-06-22T00:26:47;19.17;;;17.15;;
58260;SDS011;44058;52.898;6.502;2023-06-22T00:29:14;19.60;;;16.13;;
58260;SDS011;44058;52.898;6.502;2023-06-22T00:31:40;17.30;;;14.70;;
58260;SDS011;44058;52.898;6.502;2023-06-22T00:34:06;14.20;;;12.80;;
58260;SDS011;44058;52.898;6.502;2023-06-22T00:36:33;15.93;;;13.90;;
58260;SDS011;44058;52.898;6.502;2023-06-22T00:38:59;15.88;;;14.18;;
58260;SDS011;44058;52.898;6.502;2023-06-22T00:41:26;15.85;;;14.25;;
58260;SDS011;44058;52.898;6.502;2023-06-22T00:43:53;14.50;;;13.20;;
58260;SDS011;44058;52.898;6.502;2023-06-22T00:46:20;17.05;;;14.38;;
58260;SDS011;44058;52.898;6.502;2023-06-22T00:48:47;16.95;;;15.25;;
58260;SDS011;44058;52.898;6.502;2023-06-22T00:51:14;16.95;;;14.30;;
58260;SDS011;44058;52.898;6.502;2023-06-22T00:53:40;17.38;;;14.95;;
58260;SDS011;44058;52.898;6.502;2023-06-22T00:56:08;14.77;;;12.90;;
58260;SDS011;44058;52.898;6.502;2023-06-22T00:58:35;12.60;;;11.30;;
58260;SDS011;44058;52.898;6.502;2023-06-22T01:01:02;16.77;;;14.80;;
58260;SDS011;44058;52.898;6.502;2023-06-22T01:03:28;17.10;;;15.18;;
58260;SDS011;44058;52.898;6.502;2023-06-22T01:05:56;14.13;;;12.68;;
58260;SDS011;44058;52.898;6.502;2023-06-22T01:08:29;14.02;;;12.63;;
58260;SDS011;44058;52.898;6.502;2023-06-22T01:11:00;16.05;;;13.80;;
58260;SDS011;44058;52.898;6.502;2023-06-22T01:13:32;17.30;;;15.52;;
58260;SDS011;44058;52.898;6.502;2023-06-22T01:16:17;15.85;;;14.25;;
58260;SDS011;44058;52.898;6.502;2023-06-22T01:18:46;16.23;;;14.63;;
58260;SDS011;44058;52.898;6.502;2023-06-22T01:21:15;16.23;;;14.73;;
58260;SDS011;44058;52.898;6.502;2023-06-22T01:23:49;15.15;;;13.07;;
58260;SDS011;44058;52.898;6.502;2023-06-22T01:31:12;10.55;;;9.60;;
58260;SDS011;44058;52.898;6.502;2023-06-22T01:33:39;10.93;;;9.85;;
58260;SDS011;44058;52.898;6.502;2023-06-22T01:36:06;10.90;;;9.93;;
58260;SDS011;44058;52.898;6.502;2023-06-22T01:38:33;11.88;;;10.77;;
58260;SDS011;44058;52.898;6.502;2023-06-22T01:41:00;12.05;;;10.85;;
58260;SDS011;44058;52.898;6.502;2023-06-22T01:43:27;11.90;;;10.88;;
58260;SDS011;44058;52.898;6.502;2023-06-22T01:45:54;10.15;;;9.27;;
58260;SDS011;44058;52.898;6.502;2023-06-22T01:48:21;9.75;;;8.90;;
58260;SDS011;44058;52.898;6.502;2023-06-22T01:50:47;9.93;;;9.10;;
58260;SDS011;44058;52.898;6.502;2023-06-22T01:53:14;11.07;;;10.13;;
58260;SDS011;44058;52.898;6.502;2023-06-22T01:55:40;9.00;;;8.32;;
58260;SDS011;44058;52.898;6.502;2023-06-22T01:58:06;9.60;;;8.80;;
58260;SDS011;44058;52.898;6.502;2023-06-22T02:00:33;9.90;;;9.10;;
58260;SDS011;44058;52.898;6.502;2023-06-22T02:03:05;9.18;;;8.40;;
58260;SDS011;44058;52.898;6.502;2023-06-22T02:05:36;9.63;;;8.73;;
58260;SDS011;44058;52.898;6.502;2023-06-22T02:08:13;10.60;;;9.80;;
58260;SDS011;44058;52.898;6.502;2023-06-22T02:10:41;11.13;;;10.15;;
58260;SDS011;44058;52.898;6.502;2023-06-22T02:13:09;12.10;;;11.07;;
58260;SDS011;44058;52.898;6.502;2023-06-22T02:15:36;11.98;;;10.88;;
58260;SDS011;44058;52.898;6.502;2023-06-22T02:18:02;13.30;;;12.10;;
58260;SDS011;44058;52.898;6.502;2023-06-22T02:20:30;12.20;;;11.20;;
58260;SDS011;44058;52.898;6.502;2023-06-22T02:22:56;12.02;;;11.02;;
58260;SDS011;44058;52.898;6.502;2023-06-22T02:25:22;13.15;;;12.05;;
58260;SDS011;44058;52.898;6.502;2023-06-22T02:27:48;11.88;;;10.82;;
58260;SDS011;44058;52.898;6.502;2023-06-22T02:30:14;12.15;;;11.25;;
58260;SDS011;44058;52.898;6.502;2023-06-22T02:32:41;11.15;;;10.30;;
58260;SDS011;44058;52.898;6.502;2023-06-22T02:35:10;12.50;;;11.50;;
58260;SDS011;44058;52.898;6.502;2023-06-22T02:37:37;13.23;;;12.13;;
58260;SDS011;44058;52.898;6.502;2023-06-22T02:40:09;11.20;;;10.38;;
58260;SDS011;44058;52.898;6.502;2023-06-22T02:42:36;11.05;;;10.25;;
58260;SDS011;44058;52.898;6.502;2023-06-22T02:45:02;10.20;;;9.50;;
58260;SDS011;44058;52.898;6.502;2023-06-22T02:47:29;10.82;;;10.02;;
58260;SDS011;44058;52.898;6.502;2023-06-22T02:49:55;10.73;;;10.02;;
58260;SDS011;44058;52.898;6.502;2023-06-22T02:52:21;11.65;;;10.75;;
58260;SDS011;44058;52.898;6.502;2023-06-22T02:54:47;13.35;;;12.25;;
58260;SDS011;44058;52.898;6.502;2023-06-22T02:57:13;13.65;;;12.55;;
58260;SDS011;44058;52.898;6.502;2023-06-22T02:59:40;16.55;;;15.25;;
58260;SDS011;44058;52.898;6.502;2023-06-22T03:02:07;16.42;;;15.02;;
58260;SDS011;44058;52.898;6.502;2023-06-22T03:04:34;17.60;;;16.10;;
58260;SDS011;44058;52.898;6.502;2023-06-22T03:07:00;15.15;;;13.85;;
58260;SDS011;44058;52.898;6.502;2023-06-22T03:09:26;15.02;;;13.82;;
58260;SDS011;44058;52.898;6.502;2023-06-22T03:11:53;15.07;;;13.77;;
58260;SDS011;44058;52.898;6.502;2023-06-22T03:14:19;14.70;;;13.50;;
58260;SDS011;44058;52.898;6.502;2023-06-22T03:16:46;14.00;;;12.70;;
58260;SDS011;44058;52.898;6.502;2023-06-22T03:19:12;14.38;;;13.07;;
58260;SDS011;44058;52.898;6.502;2023-06-22T03:21:39;15.48;;;14.07;;
58260;SDS011;44058;52.898;6.502;2023-06-22T03:24:06;12.00;;;11.10;;
58260;SDS011;44058;52.898;6.502;2023-06-22T03:26:32;11.32;;;10.43;;
58260;SDS011;44058;52.898;6.502;2023-06-22T03:28:59;11.15;;;10.35;;
58260;SDS011;44058;52.898;6.502;2023-06-22T03:31:25;11.43;;;10.43;;
58260;SDS011;44058;52.898;6.502;2023-06-22T03:33:51;11.55;;;10.65;;
58260;SDS011;44058;52.898;6.502;2023-06-22T03:36:17;11.82;;;10.98;;
58260;SDS011;44058;52.898;6.502;2023-06-22T03:38:47;12.27;;;11.18;;
58260;SDS011;44058;52.898;6.502;2023-06-22T03:41:13;11.40;;;10.38;;
58260;SDS011;44058;52.898;6.502;2023-06-22T03:43:39;11.45;;;10.35;;
58260;SDS011;44058;52.898;6.502;2023-06-22T03:46:05;11.75;;;10.65;;
58260;SDS011;44058;52.898;6.502;2023-06-22T03:48:31;13.60;;;12.40;;
58260;SDS011;44058;52.898;6.502;2023-06-22T03:50:59;15.93;;;14.23;;
58260;SDS011;44058;52.898;6.502;2023-06-22T03:53:25;17.80;;;16.08;;
58260;SDS011;44058;52.898;6.502;2023-06-22T03:55:51;18.17;;;16.48;;
58260;SDS011;44058;52.898;6.502;2023-06-22T03:58:18;18.75;;;17.05;;
58260;SDS011;44058;52.898;6.502;2023-06-22T04:00:46;20.15;;;18.05;;
58260;SDS011;44058;52.898;6.502;2023-06-22T04:03:12;19.77;;;17.75;;
58260;SDS011;44058;52.898;6.502;2023-06-22T04:05:39;19.85;;;17.85;;
58260;SDS011;44058;52.898;6.502;2023-06-22T04:08:05;19.88;;;18.08;;
58260;SDS011;44058;52.898;6.502;2023-06-22T04:10:31;20.40;;;18.30;;
58260;SDS011;44058;52.898;6.502;2023-06-22T04:12:57;19.55;;;17.75;;
58260;SDS011;44058;52.898;6.502;2023-06-22T04:15:23;19.05;;;17.25;;
58260;SDS011;44058;52.898;6.502;2023-06-22T04:17:50;17.77;;;16.08;;
58260;SDS011;44058;52.898;6.502;2023-06-22T04:20:16;19.90;;;18.05;;
58260;SDS011;44058;52.898;6.502;2023-06-22T04:22:42;18.83;;;16.88;;
58260;SDS011;44058;52.898;6.502;2023-06-22T04:25:08;19.10;;;17.17;;
58260;SDS011;44058;52.898;6.502;2023-06-22T04:27:34;19.55;;;17.55;;
58260;SDS011;44058;52.898;6.502;2023-06-22T04:30:05;19.55;;;17.48;;
58260;SDS011;44058;52.898;6.502;2023-06-22T04:32:35;18.63;;;16.95;;
58260;SDS011;44058;52.898;6.502;2023-06-22T04:35:04;21.20;;;18.50;;
58260;SDS011;44058;52.898;6.502;2023-06-22T04:37:31;21.65;;;19.27;;
58260;SDS011;44058;52.898;6.502;2023-06-22T04:39:57;24.55;;;22.05;;
58260;SDS011;44058;52.898;6.502;2023-06-22T04:42:26;25.63;;;22.33;;
58260;SDS011;44058;52.898;6.502;2023-06-22T04:44:53;25.60;;;22.98;;
58260;SDS011;44058;52.898;6.502;2023-06-22T04:47:19;27.45;;;24.52;;
58260;SDS011;44058;52.898;6.502;2023-06-22T04:49:45;24.58;;;21.95;;
58260;SDS011;44058;52.898;6.502;2023-06-22T04:52:12;25.17;;;22.63;;
58260;SDS011;44058;52.898;6.502;2023-06-22T04:54:42;24.15;;;21.65;;
58260;SDS011;44058;52.898;6.502;2023-06-22T04:57:13;26.23;;;23.42;;
58260;SDS011;44058;52.898;6.502;2023-06-22T04:59:39;24.17;;;21.67;;
58260;SDS011;44058;52.898;6.502;2023-06-22T05:02:06;25.33;;;22.70;;
58260;SDS011;44058;52.898;6.502;2023-06-22T05:04:33;25.55;;;22.88;;
58260;SDS011;44058;52.898;6.502;2023-06-22T05:07:01;27.88;;;24.95;;
58260;SDS011;44058;52.898;6.502;2023-06-22T05:09:27;26.58;;;23.80;;
58260;SDS011;44058;52.898;6.502;2023-06-22T05:11:54;27.23;;;24.38;;
58260;SDS011;44058;52.898;6.502;2023-06-22T05:14:24;24.95;;;22.35;;
58260;SDS011;44058;52.898;6.502;2023-06-22T05:16:50;24.80;;;22.17;;
58260;SDS011;44058;52.898;6.502;2023-06-22T05:19:24;26.05;;;23.35;;
58260;SDS011;44058;52.898;6.502;2023-06-22T05:21:56;26.13;;;23.33;;
58260;SDS011;44058;52.898;6.502;2023-06-22T05:24:22;26.77;;;24.05;;
58260;SDS011;44058;52.898;6.502;2023-06-22T05:26:48;24.95;;;22.48;;
58260;SDS011;44058;52.898;6.502;2023-06-22T05:29:14;27.65;;;24.75;;
58260;SDS011;44058;52.898;6.502;2023-06-22T05:31:40;28.83;;;24.85;;
58260;SDS011;44058;52.898;6.502;2023-06-22T05:34:06;29.83;;;25.67;;
58260;SDS011;44058;52.898;6.502;2023-06-22T05:36:32;26.50;;;23.70;;
58260;SDS011;44058;52.898;6.502;2023-06-22T05:38:59;28.60;;;24.85;;
58260;SDS011;44058;52.898;6.502;2023-06-22T05:41:25;29.88;;;24.90;;
58260;SDS011;44058;52.898;6.502;2023-06-22T05:43:51;26.33;;;22.63;;
58260;SDS011;44058;52.898;6.502;2023-06-22T05:46:19;26.92;;;24.13;;
58260;SDS011;44058;52.898;6.502;2023-06-22T05:48:45;27.63;;;23.90;;
58260;SDS011;44058;52.898;6.502;2023-06-22T05:51:11;23.23;;;20.88;;
58260;SDS011;44058;52.898;6.502;2023-06-22T05:53:37;26.08;;;23.33;;
58260;SDS011;44058;52.898;6.502;2023-06-22T05:56:03;25.33;;;22.63;;
58260;SDS011;44058;52.898;6.502;2023-06-22T05:58:29;25.90;;;23.05;;
58260;SDS011;44058;52.898;6.502;2023-06-22T06:00:55;24.80;;;22.27;;
58260;SDS011;44058;52.898;6.502;2023-06-22T06:03:21;24.33;;;21.67;;
58260;SDS011;44058;52.898;6.502;2023-06-22T06:05:48;25.05;;;22.38;;
58260;SDS011;44058;52.898;6.502;2023-06-22T06:08:14;24.77;;;22.20;;
58260;SDS011;44058;52.898;6.502;2023-06-22T06:10:40;24.58;;;21.90;;
58260;SDS011;44058;52.898;6.502;2023-06-22T06:13:06;24.02;;;21.52;;
58260;SDS011;44058;52.898;6.502;2023-06-22T06:15:33;25.77;;;21.80;;
58260;SDS011;44058;52.898;6.502;2023-06-22T06:17:59;23.98;;;21.40;;
58260;SDS011;44058;52.898;6.502;2023-06-22T06:20:27;24.63;;;22.02;;
58260;SDS011;44058;52.898;6.502;2023-06-22T06:22:54;24.30;;;21.58;;
58260;SDS011;44058;52.898;6.502;2023-06-22T06:25:21;27.48;;;22.50;;
58260;SDS011;44058;52.898;6.502;2023-06-22T06:27:47;22.75;;;20.40;;
58260;SDS011;44058;52.898;6.502;2023-06-22T06:30:14;23.15;;;20.70;;
58260;SDS011;44058;52.898;6.502;2023-06-22T06:32:40;21.92;;;18.67;;
58260;SDS011;44058;52.898;6.502;2023-06-22T06:35:07;21.27;;;18.92;;
58260;SDS011;44058;52.898;6.502;2023-06-22T06:37:37;21.88;;;19.50;;
58260;SDS011;44058;52.898;6.502;2023-06-22T06:40:03;21.35;;;19.15;;
58260;SDS011;44058;52.898;6.502;2023-06-22T06:42:42;20.67;;;18.35;;
58260;SDS011;44058;52.898;6.502;2023-06-22T06:45:15;20.00;;;17.85;;
58260;SDS011;44058;52.898;6.502;2023-06-22T06:47:42;19.23;;;17.23;;
58260;SDS011;44058;52.898;6.502;2023-06-22T06:50:08;18.92;;;16.92;;
58260;SDS011;44058;52.898;6.502;2023-06-22T06:52:34;18.52;;;16.63;;
58260;SDS011;44058;52.898;6.502;2023-06-22T06:55:00;20.38;;;17.10;;
58260;SDS011;44058;52.898;6.502;2023-06-22T06:59:55;15.00;;;13.48;;
58260;SDS011;44058;52.898;6.502;2023-06-22T07:02:22;16.08;;;14.07;;
58260;SDS011;44058;52.898;6.502;2023-06-22T07:04:48;13.63;;;12.20;;
58260;SDS011;44058;52.898;6.502;2023-06-22T07:07:14;13.98;;;12.57;;
58260;SDS011;44058;52.898;6.502;2023-06-22T07:09:40;14.10;;;12.68;;
58260;SDS011;44058;52.898;6.502;2023-06-22T07:12:07;12.93;;;11.52;;
58260;SDS011;44058;52.898;6.502;2023-06-22T07:14:33;13.88;;;11.50;;
58260;SDS011;44058;52.898;6.502;2023-06-22T07:16:59;9.75;;;8.75;;
58260;SDS011;44058;52.898;6.502;2023-06-22T07:19:25;9.38;;;8.27;;
58260;SDS011;44058;52.898;6.502;2023-06-22T07:21:53;8.95;;;7.95;;
58260;SDS011;44058;52.898;6.502;2023-06-22T07:24:20;8.80;;;7.10;;
58260;SDS011;44058;52.898;6.502;2023-06-22T07:26:49;8.57;;;7.25;;
58260;SDS011;44058;52.898;6.502;2023-06-22T07:29:19;8.35;;;7.32;;
58260;SDS011;44058;52.898;6.502;2023-06-22T07:31:49;8.88;;;8.02;;
58260;SDS011;44058;52.898;6.502;2023-06-22T07:34:16;9.00;;;7.80;;
58260;SDS011;44058;52.898;6.502;2023-06-22T07:36:43;8.88;;;7.32;;
58260;SDS011;44058;52.898;6.502;2023-06-22T07:39:09;11.15;;;8.38;;
58260;SDS011;44058;52.898;6.502;2023-06-22T07:41:36;10.20;;;9.18;;
58260;SDS011;44058;52.898;6.502;2023-06-22T07:44:03;10.88;;;9.23;;
58260;SDS011;44058;52.898;6.502;2023-06-22T07:46:29;9.18;;;8.27;;
58260;SDS011;44058;52.898;6.502;2023-06-22T07:48:55;8.98;;;8.05;;
58260;SDS011;44058;52.898;6.502;2023-06-22T07:51:22;9.70;;;8.15;;
58260;SDS011;44058;52.898;6.502;2023-06-22T07:53:48;9.43;;;7.93;;
58260;SDS011;44058;52.898;6.502;2023-06-22T07:56:14;8.25;;;7.45;;
58260;SDS011;44058;52.898;6.502;2023-06-22T07:58:44;8.55;;;7.65;;
58260;SDS011;44058;52.898;6.502;2023-06-22T08:01:11;8.57;;;7.65;;
58260;SDS011;44058;52.898;6.502;2023-06-22T08:03:37;8.90;;;6.90;;
58260;SDS011;44058;52.898;6.502;2023-06-22T08:06:04;10.40;;;7.43;;
58260;SDS011;44058;52.898;6.502;2023-06-22T08:08:31;9.35;;;6.50;;
58260;SDS011;44058;52.898;6.502;2023-06-22T08:10:57;7.90;;;6.68;;
58260;SDS011;44058;52.898;6.502;2023-06-22T08:13:23;7.85;;;6.25;;
58260;SDS011;44058;52.898;6.502;2023-06-22T08:15:49;8.88;;;6.50;;
58260;SDS011;44058;52.898;6.502;2023-06-22T08:18:15;7.47;;;6.10;;
58260;SDS011;44058;52.898;6.502;2023-06-22T08:20:41;9.60;;;7.25;;
58260;SDS011;44058;52.898;6.502;2023-06-22T08:23:08;8.27;;;6.43;;
58260;SDS011;44058;52.898;6.502;2023-06-22T08:25:34;9.25;;;6.43;;
58260;SDS011;44058;52.898;6.502;2023-06-22T08:28:01;10.27;;;6.57;;
58260;SDS011;44058;52.898;6.502;2023-06-22T08:30:27;7.97;;;7.05;;
58260;SDS011;44058;52.898;6.502;2023-06-22T08:32:53;7.70;;;6.18;;
58260;SDS011;44058;52.898;6.502;2023-06-22T08:35:21;11.10;;;7.45;;
58260;SDS011;44058;52.898;6.502;2023-06-22T08:37:47;7.70;;;6.90;;
58260;SDS011;44058;52.898;6.502;2023-06-22T08:40:18;7.75;;;6.60;;
58260;SDS011;44058;52.898;6.502;2023-06-22T08:42:47;9.43;;;6.70;;
58260;SDS011;44058;52.898;6.502;2023-06-22T08:45:14;8.85;;;6.72;;
58260;SDS011;44058;52.898;6.502;2023-06-22T08:47:40;6.90;;;6.10;;
58260;SDS011;44058;52.898;6.502;2023-06-22T08:50:09;7.75;;;6.95;;
58260;SDS011;44058;52.898;6.502;2023-06-22T08:52:36;7.45;;;5.72;;
58260;SDS011;44058;52.898;6.502;2023-06-22T08:55:03;8.45;;;7.47;;
58260;SDS011;44058;52.898;6.502;2023-06-22T08:57:29;7.00;;;6.30;;
58260;SDS011;44058;52.898;6.502;2023-06-22T08:59:55;7.55;;;6.40;;
58260;SDS011;44058;52.898;6.502;2023-06-22T09:02:25;7.57;;;6.50;;
58260;SDS011;44058;52.898;6.502;2023-06-22T09:04:51;9.05;;;6.80;;
58260;SDS011;44058;52.898;6.502;2023-06-22T09:07:21;7.78;;;6.50;;
58260;SDS011;44058;52.898;6.502;2023-06-22T09:09:48;7.13;;;5.90;;
58260;SDS011;44058;52.898;6.502;2023-06-22T09:12:14;7.40;;;6.70;;
58260;SDS011;44058;52.898;6.502;2023-06-22T09:14:40;8.60;;;7.18;;
58260;SDS011;44058;52.898;6.502;2023-06-22T09:17:06;7.22;;;6.47;;
58260;SDS011;44058;52.898;6.502;2023-06-22T09:19:32;8.48;;;6.53;;
58260;SDS011;44058;52.898;6.502;2023-06-22T09:21:58;7.22;;;6.53;;
58260;SDS011;44058;52.898;6.502;2023-06-22T09:24:28;7.50;;;6.70;;
58260;SDS011;44058;52.898;6.502;2023-06-22T09:26:54;7.45;;;6.43;;
58260;SDS011;44058;52.898;6.502;2023-06-22T09:29:20;13.82;;;7.13;;
58260;SDS011;44058;52.898;6.502;2023-06-22T09:31:46;7.38;;;6.32;;
58260;SDS011;44058;52.898;6.502;2023-06-22T09:34:12;9.13;;;7.15;;
58260;SDS011;44058;52.898;6.502;2023-06-22T09:36:38;8.85;;;6.82;;
58260;SDS011;44058;52.898;6.502;2023-06-22T09:39:05;8.48;;;7.10;;
58260;SDS011;44058;52.898;6.502;2023-06-22T09:41:31;9.35;;;6.57;;
58260;SDS011;44058;52.898;6.502;2023-06-22T09:43:57;9.38;;;7.80;;
58260;SDS011;44058;52.898;6.502;2023-06-22T09:46:24;7.90;;;7.13;;
58260;SDS011;44058;52.898;6.502;2023-06-22T09:48:50;8.70;;;6.68;;
58260;SDS011;44058;52.898;6.502;2023-06-22T09:51:16;8.30;;;6.15;;
58260;SDS011;44058;52.898;6.502;2023-06-22T09:53:45;7.43;;;6.72;;
58260;SDS011;44058;52.898;6.502;2023-06-22T09:56:11;7.68;;;6.78;;
58260;SDS011;44058;52.898;6.502;2023-06-22T09:58:44;8.05;;;7.25;;
58260;SDS011;44058;52.898;6.502;2023-06-22T10:01:11;7.13;;;6.30;;
58260;SDS011;44058;52.898;6.502;2023-06-22T10:06:06;8.27;;;6.63;;
58260;SDS011;44058;52.898;6.502;2023-06-22T10:08:33;8.25;;;7.22;;
58260;SDS011;44058;52.898;6.502;2023-06-22T10:10:59;7.88;;;5.88;;
58260;SDS011;44058;52.898;6.502;2023-06-22T10:13:25;8.50;;;7.50;;
58260;SDS011;44058;52.898;6.502;2023-06-22T10:15:52;8.13;;;6.60;;
58260;SDS011;44058;52.898;6.502;2023-06-22T10:18:18;8.80;;;7.90;;
58260;SDS011;44058;52.898;6.502;2023-06-22T10:20:48;7.47;;;6.55;;
58260;SDS011;44058;52.898;6.502;2023-06-22T10:23:16;7.18;;;5.90;;
58260;SDS011;44058;52.898;6.502;2023-06-22T10:25:43;6.03;;;5.30;;
58260;SDS011;44058;52.898;6.502;2023-06-22T10:28:09;7.10;;;5.65;;
58260;SDS011;44058;52.898;6.502;2023-06-22T10:30:35;6.95;;;5.40;;
58260;SDS011;44058;52.898;6.502;2023-06-22T10:33:01;7.82;;;6.28;;
58260;SDS011;44058;52.898;6.502;2023-06-22T10:35:27;6.93;;;5.82;;
58260;SDS011;44058;52.898;6.502;2023-06-22T10:37:54;6.28;;;5.43;;
58260;SDS011;44058;52.898;6.502;2023-06-22T10:40:21;9.57;;;6.57;;
58260;SDS011;44058;52.898;6.502;2023-06-22T10:42:47;8.30;;;6.43;;
58260;SDS011;44058;52.898;6.502;2023-06-22T10:45:15;6.65;;;6.05;;
58260;SDS011;44058;52.898;6.502;2023-06-22T10:47:41;6.63;;;5.45;;
58260;SDS011;44058;52.898;6.502;2023-06-22T10:50:08;7.00;;;6.28;;
58260;SDS011;44058;52.898;6.502;2023-06-22T10:52:34;8.88;;;5.88;;
58260;SDS011;44058;52.898;6.502;2023-06-22T10:55:00;6.95;;;5.45;;
58260;SDS011;44058;52.898;6.502;2023-06-22T10:57:26;7.97;;;5.60;;
58260;SDS011;44058;52.898;6.502;2023-06-22T10:59:52;7.93;;;5.43;;
58260;SDS011;44058;52.898;6.502;2023-06-22T11:02:18;6.88;;;6.18;;
58260;SDS011;44058;52.898;6.502;2023-06-22T11:04:44;8.63;;;5.28;;
58260;SDS011;44058;52.898;6.502;2023-06-22T11:07:11;5.80;;;4.88;;
58260;SDS011;44058;52.898;6.502;2023-06-22T11:09:37;7.13;;;5.55;;
58260;SDS011;44058;52.898;6.502;2023-06-22T11:12:04;6.35;;;5.57;;
58260;SDS011;44058;52.898;6.502;2023-06-22T11:14:31;5.65;;;4.90;;
58260;SDS011;44058;52.898;6.502;2023-06-22T11:16:58;6.75;;;5.47;;
58260;SDS011;44058;52.898;6.502;2023-06-22T11:19:24;8.48;;;5.40;;
58260;SDS011;44058;52.898;6.502;2023-06-22T11:21:51;5.72;;;5.22;;
58260;SDS011;44058;52.898;6.502;2023-06-22T11:24:17;6.30;;;4.85;;
58260;SDS011;44058;52.898;6.502;2023-06-22T11:26:44;6.03;;;5.43;;
58260;SDS011;44058;52.898;6.502;2023-06-22T11:29:10;7.63;;;5.68;;
58260;SDS011;44058;52.898;6.502;2023-06-22T11:31:36;7.80;;;5.47;;
58260;SDS011;44058;52.898;6.502;2023-06-22T11:34:03;6.00;;;4.40;;
58260;SDS011;44058;52.898;6.502;2023-06-22T11:36:29;7.50;;;5.28;;
58260;SDS011;44058;52.898;6.502;2023-06-22T11:38:58;5.68;;;5.05;;
58260;SDS011;44058;52.898;6.502;2023-06-22T11:41:24;6.60;;;5.15;;
58260;SDS011;44058;52.898;6.502;2023-06-22T11:43:50;5.85;;;5.13;;
58260;SDS011;44058;52.898;6.502;2023-06-22T11:46:16;6.63;;;5.43;;
58260;SDS011;44058;52.898;6.502;2023-06-22T11:48:42;4.88;;;4.38;;
58260;SDS011;44058;52.898;6.502;2023-06-22T11:51:08;4.97;;;4.20;;
58260;SDS011;44058;52.898;6.502;2023-06-22T11:53:35;7.10;;;4.95;;
58260;SDS011;44058;52.898;6.502;2023-06-22T11:56:01;4.60;;;4.20;;
58260;SDS011;44058;52.898;6.502;2023-06-22T11:58:27;6.80;;;5.35;;
58260;SDS011;44058;52.898;6.502;2023-06-22T12:00:53;6.20;;;5.60;;
58260;SDS011;44058;52.898;6.502;2023-06-22T12:03:20;6.15;;;4.95;;
58260;SDS011;44058;52.898;6.502;2023-06-22T12:05:46;5.60;;;4.95;;
58260;SDS011;44058;52.898;6.502;2023-06-22T12:08:12;8.18;;;4.80;;
58260;SDS011;44058;52.898;6.502;2023-06-22T12:10:39;4.65;;;4.07;;
58260;SDS011;44058;52.898;6.502;2023-06-22T12:13:05;4.65;;;3.97;;
58260;SDS011;44058;52.898;6.502;2023-06-22T12:15:31;8.05;;;4.28;;
58260;SDS011;44058;52.898;6.502;2023-06-22T12:17:57;6.50;;;4.90;;
58260;SDS011;44058;52.898;6.502;2023-06-22T12:20:23;5.13;;;4.63;;
58260;SDS011;44058;52.898;6.502;2023-06-22T12:22:49;6.47;;;4.43;;
58260;SDS011;44058;52.898;6.502;2023-06-22T12:25:16;6.03;;;5.30;;
58260;SDS011;44058;52.898;6.502;2023-06-22T12:27:43;6.53;;;4.78;;
58260;SDS011;44058;52.898;6.502;2023-06-22T12:30:09;8.30;;;4.07;;
58260;SDS011;44058;52.898;6.502;2023-06-22T12:32:35;5.22;;;4.72;;
58260;SDS011;44058;52.898;6.502;2023-06-22T12:35:02;7.35;;;4.38;;
58260;SDS011;44058;52.898;6.502;2023-06-22T12:37:28;7.40;;;4.78;;
58260;SDS011;44058;52.898;6.502;2023-06-22T12:39:56;7.47;;;4.93;;
58260;SDS011;44058;52.898;6.502;2023-06-22T12:42:22;5.10;;;4.60;;
58260;SDS011;44058;52.898;6.502;2023-06-22T12:44:48;13.98;;;5.35;;
58260;SDS011;44058;52.898;6.502;2023-06-22T12:47:14;8.75;;;4.80;;
58260;SDS011;44058;52.898;6.502;2023-06-22T12:49:41;5.10;;;4.35;;
58260;SDS011;44058;52.898;6.502;2023-06-22T12:52:10;5.78;;;5.03;;
58260;SDS011;44058;52.898;6.502;2023-06-22T12:54:38;4.90;;;4.13;;
58260;SDS011;44058;52.898;6.502;2023-06-22T12:57:05;6.30;;;5.40;;
58260;SDS011;44058;52.898;6.502;2023-06-22T12:59:31;6.57;;;5.00;;
58260;SDS011;44058;52.898;6.502;2023-06-22T13:01:57;7.70;;;4.95;;
58260;SDS011;44058;52.898;6.502;2023-06-22T13:04:23;5.00;;;4.32;;
58260;SDS011;44058;52.898;6.502;2023-06-22T13:06:49;6.80;;;5.35;;
58260;SDS011;44058;52.898;6.502;2023-06-22T13:09:17;6.75;;;5.10;;
58260;SDS011;44058;52.898;6.502;2023-06-22T13:11:43;5.72;;;4.90;;
58260;SDS011;44058;52.898;6.502;2023-06-22T13:14:09;6.75;;;5.00;;
58260;SDS011;44058;52.898;6.502;2023-06-22T13:16:35;5.70;;;5.15;;
58260;SDS011;44058;52.898;6.502;2023-06-22T13:19:01;5.10;;;4.60;;
58260;SDS011;44058;52.898;6.502;2023-06-22T13:21:27;4.97;;;4.45;;
58260;SDS011;44058;52.898;6.502;2023-06-22T13:23:54;5.57;;;4.95;;
58260;SDS011;44058;52.898;6.502;2023-06-22T13:26:20;5.88;;;5.38;;
58260;SDS011;44058;52.898;6.502;2023-06-22T13:28:48;6.78;;;5.03;;
58260;SDS011;44058;52.898;6.502;2023-06-22T13:31:14;30.15;;;8.48;;
58260;SDS011;44058;52.898;6.502;2023-06-22T13:33:40;7.80;;;5.40;;
58260;SDS011;44058;52.898;6.502;2023-06-22T13:36:06;7.60;;;5.47;;
58260;SDS011;44058;52.898;6.502;2023-06-22T13:38:35;13.65;;;6.85;;
58260;SDS011;44058;52.898;6.502;2023-06-22T13:41:04;6.30;;;5.60;;
58260;SDS011;44058;52.898;6.502;2023-06-22T13:43:32;8.20;;;5.80;;
58260;SDS011;44058;52.898;6.502;2023-06-22T13:45:58;7.40;;;6.05;;
58260;SDS011;44058;52.898;6.502;2023-06-22T13:48:25;6.57;;;5.97;;
58260;SDS011;44058;52.898;6.502;2023-06-22T13:50:51;8.32;;;6.22;;
58260;SDS011;44058;52.898;6.502;2023-06-22T13:53:17;5.70;;;5.18;;
58260;SDS011;44058;52.898;6.502;2023-06-22T13:55:43;8.48;;;6.05;;
58260;SDS011;44058;52.898;6.502;2023-06-22T13:58:09;7.63;;;6.30;;
58260;SDS011;44058;52.898;6.502;2023-06-22T14:00:35;19.10;;;7.88;;
58260;SDS011;44058;52.898;6.502;2023-06-22T14:03:02;8.00;;;5.90;;
58260;SDS011;44058;52.898;6.502;2023-06-22T14:05:28;6.55;;;5.78;;
58260;SDS011;44058;52.898;6.502;2023-06-22T14:07:54;6.40;;;5.80;;
58260;SDS011;44058;52.898;6.502;2023-06-22T14:10:20;6.75;;;5.93;;
58260;SDS011;44058;52.898;6.502;2023-06-22T14:12:46;8.80;;;6.22;;
58260;SDS011;44058;52.898;6.502;2023-06-22T14:15:13;5.97;;;5.35;;
58260;SDS011;44058;52.898;6.502;2023-06-22T14:17:39;6.43;;;5.57;;
58260;SDS011;44058;52.898;6.502;2023-06-22T14:20:05;6.63;;;5.93;;
58260;SDS011;44058;52.898;6.502;2023-06-22T14:22:33;6.13;;;5.45;;
58260;SDS011;44058;52.898;6.502;2023-06-22T14:25:00;6.45;;;5.82;;
58260;SDS011;44058;52.898;6.502;2023-06-22T14:27:26;8.80;;;5.95;;
58260;SDS011;44058;52.898;6.502;2023-06-22T14:29:53;7.43;;;5.85;;
58260;SDS011;44058;52.898;6.502;2023-06-22T14:32:19;10.63;;;6.50;;
58260;SDS011;44058;52.898;6.502;2023-06-22T14:34:45;8.40;;;6.65;;
58260;SDS011;44058;52.898;6.502;2023-06-22T14:37:11;7.28;;;6.35;;
58260;SDS011;44058;52.898;6.502;2023-06-22T14:39:38;7.50;;;6.70;;
58260;SDS011;44058;52.898;6.502;2023-06-22T14:42:08;8.45;;;6.95;;
58260;SDS011;44058;52.898;6.502;2023-06-22T14:44:34;7.50;;;6.78;;